sensor_id;sensor_type;location;lat;lon;timestamp;P1;durP1;ratioP1;P2;durP2;ratioP2
4603;SDS011;2314;48.272;11.562;2024-02-21T00:00:04;11.53;;;2.80;;
4603;SDS011;2314;48.272;11.562;2024-02-21T00:02:32;5.13;;;2.30;;
4603;SDS011;2314;48.272;11.562;2024-02-21T00:05:00;4.97;;;2.30;;
4603;SDS011;2314;48.272;11.562;2024-02-21T00:07:27;7.17;;;2.80;;
4603;SDS011;2314;48.272;11.562;2024-02-21T00:09:54;5.33;;;2.07;;
4603;SDS011;2314;48.272;11.562;2024-02-21T00:12:21;4.67;;;1.97;;
4603;SDS011;2314;48.272;11.562;2024-02-21T00:14:48;7.13;;;2.20;;
4603;SDS011;2314;48.272;11.562;2024-02-21T00:17:15;5.00;;;1.90;;
4603;SDS011;2314;48.272;11.562;2024-02-21T00:19:42;6.73;;;2.47;;
4603;SDS011;2314;48.272;11.562;2024-02-21T00:22:10;3.67;;;1.90;;
4603;SDS011;2314;48.272;11.562;2024-02-21T00:24:37;4.50;;;1.97;;
4603;SDS011;2314;48.272;11.562;2024-02-21T00:27:05;5.37;;;1.97;;
4603;SDS011;2314;48.272;11.562;2024-02-21T00:29:32;5.80;;;1.73;;
4603;SDS011;2314;48.272;11.562;2024-02-21T00:31:59;6.83;;;2.30;;
4603;SDS011;2314;48.272;11.562;2024-02-21T00:34:26;5.53;;;2.10;;
4603;SDS011;2314;48.272;11.562;2024-02-21T00:36:53;5.47;;;1.83;;
4603;SDS011;2314;48.272;11.562;2024-02-21T00:39:22;6.67;;;2.37;;
4603;SDS011;2314;48.272;11.562;2024-02-21T00:41:49;5.37;;;2.20;;
4603;SDS011;2314;48.272;11.562;2024-02-21T00:44:16;4.70;;;2.03;;
4603;SDS011;2314;48.272;11.562;2024-02-21T00:46:43;4.43;;;2.33;;
4603;SDS011;2314;48.272;11.562;2024-02-21T00:49:12;6.27;;;2.17;;
4603;SDS011;2314;48.272;11.562;2024-02-21T00:51:39;6.83;;;2.50;;
4603;SDS011;2314;48.272;11.562;2024-02-21T00:54:06;3.60;;;1.70;;
4603;SDS011;2314;48.272;11.562;2024-02-21T00:56:35;5.00;;;2.03;;
4603;SDS011;2314;48.272;11.562;2024-02-21T00:59:05;4.20;;;1.83;;
4603;SDS011;2314;48.272;11.562;2024-02-21T01:01:32;6.20;;;2.30;;
4603;SDS011;2314;48.272;11.562;2024-02-21T01:03:59;6.40;;;2.00;;
4603;SDS011;2314;48.272;11.562;2024-02-21T01:06:26;6.43;;;3.00;;
4603;SDS011;2314;48.272;11.562;2024-02-21T01:08:53;4.83;;;2.40;;
4603;SDS011;2314;48.272;11.562;2024-02-21T01:11:20;4.37;;;1.93;;
4603;SDS011;2314;48.272;11.562;2024-02-21T01:13:49;8.60;;;1.80;;
4603;SDS011;2314;48.272;11.562;2024-02-21T01:16:16;5.00;;;1.90;;
4603;SDS011;2314;48.272;11.562;2024-02-21T01:18:43;7.27;;;1.97;;
4603;SDS011;2314;48.272;11.562;2024-02-21T01:21:10;3.93;;;1.53;;
4603;SDS011;2314;48.272;11.562;2024-02-21T01:23:37;6.40;;;1.93;;
4603;SDS011;2314;48.272;11.562;2024-02-21T01:26:04;9.97;;;2.50;;
4603;SDS011;2314;48.272;11.562;2024-02-21T01:28:33;7.77;;;2.20;;
4603;SDS011;2314;48.272;11.562;2024-02-21T01:31:02;6.47;;;2.00;;
4603;SDS011;2314;48.272;11.562;2024-02-21T01:33:29;4.60;;;2.20;;
4603;SDS011;2314;48.272;11.562;2024-02-21T01:35:59;8.10;;;2.30;;
4603;SDS011;2314;48.272;11.562;2024-02-21T01:38:27;5.93;;;2.10;;
4603;SDS011;2314;48.272;11.562;2024-02-21T01:40:54;4.57;;;1.53;;
4603;SDS011;2314;48.272;11.562;2024-02-21T01:43:21;5.53;;;2.07;;
4603;SDS011;2314;48.272;11.562;2024-02-21T01:45:49;6.80;;;1.77;;
4603;SDS011;2314;48.272;11.562;2024-02-21T01:48:19;5.30;;;1.90;;
4603;SDS011;2314;48.272;11.562;2024-02-21T01:50:48;8.83;;;2.33;;
4603;SDS011;2314;48.272;11.562;2024-02-21T01:53:17;4.77;;;1.90;;
4603;SDS011;2314;48.272;11.562;2024-02-21T01:55:47;5.30;;;1.83;;
4603;SDS011;2314;48.272;11.562;2024-02-21T01:58:15;5.43;;;2.13;;
4603;SDS011;2314;48.272;11.562;2024-02-21T02:00:43;4.70;;;1.83;;
4603;SDS011;2314;48.272;11.562;2024-02-21T02:03:12;4.13;;;1.50;;
4603;SDS011;2314;48.272;11.562;2024-02-21T02:05:43;5.50;;;1.80;;
4603;SDS011;2314;48.272;11.562;2024-02-21T02:08:11;4.90;;;1.67;;
4603;SDS011;2314;48.272;11.562;2024-02-21T02:10:39;8.43;;;2.30;;
4603;SDS011;2314;48.272;11.562;2024-02-21T02:13:06;5.33;;;1.80;;
4603;SDS011;2314;48.272;11.562;2024-02-21T02:15:39;6.87;;;2.00;;
4603;SDS011;2314;48.272;11.562;2024-02-21T02:18:07;3.73;;;1.53;;
4603;SDS011;2314;48.272;11.562;2024-02-21T02:20:35;2.70;;;1.30;;
4603;SDS011;2314;48.272;11.562;2024-02-21T02:23:05;5.47;;;1.60;;
4603;SDS011;2314;48.272;11.562;2024-02-21T02:25:37;4.73;;;1.83;;
4603;SDS011;2314;48.272;11.562;2024-02-21T02:28:05;6.17;;;1.97;;
4603;SDS011;2314;48.272;11.562;2024-02-21T02:30:33;3.97;;;1.40;;
4603;SDS011;2314;48.272;11.562;2024-02-21T02:33:01;6.73;;;1.73;;
4603;SDS011;2314;48.272;11.562;2024-02-21T02:35:28;16.53;;;3.50;;
4603;SDS011;2314;48.272;11.562;2024-02-21T02:37:55;10.17;;;2.50;;
4603;SDS011;2314;48.272;11.562;2024-02-21T02:40:22;3.20;;;1.60;;
4603;SDS011;2314;48.272;11.562;2024-02-21T02:42:51;4.60;;;2.00;;
4603;SDS011;2314;48.272;11.562;2024-02-21T02:45:20;5.53;;;1.97;;
4603;SDS011;2314;48.272;11.562;2024-02-21T02:47:48;4.93;;;1.80;;
4603;SDS011;2314;48.272;11.562;2024-02-21T02:50:15;3.80;;;1.93;;
4603;SDS011;2314;48.272;11.562;2024-02-21T02:52:42;3.30;;;1.60;;
4603;SDS011;2314;48.272;11.562;2024-02-21T02:55:09;3.50;;;1.70;;
4603;SDS011;2314;48.272;11.562;2024-02-21T02:57:36;3.83;;;1.90;;
4603;SDS011;2314;48.272;11.562;2024-02-21T03:00:05;4.63;;;1.97;;
4603;SDS011;2314;48.272;11.562;2024-02-21T03:02:34;5.00;;;2.00;;
4603;SDS011;2314;48.272;11.562;2024-02-21T03:05:02;3.40;;;1.53;;
4603;SDS011;2314;48.272;11.562;2024-02-21T03:07:40;6.97;;;2.00;;
4603;SDS011;2314;48.272;11.562;2024-02-21T03:10:08;4.10;;;1.57;;
4603;SDS011;2314;48.272;11.562;2024-02-21T03:12:36;3.30;;;1.37;;
4603;SDS011;2314;48.272;11.562;2024-02-21T03:15:05;3.40;;;1.60;;
4603;SDS011;2314;48.272;11.562;2024-02-21T03:17:33;3.77;;;1.70;;
4603;SDS011;2314;48.272;11.562;2024-02-21T03:20:00;5.33;;;1.97;;
4603;SDS011;2314;48.272;11.562;2024-02-21T03:22:30;4.03;;;1.80;;
4603;SDS011;2314;48.272;11.562;2024-02-21T03:24:57;2.57;;;1.10;;
4603;SDS011;2314;48.272;11.562;2024-02-21T03:27:24;5.50;;;1.70;;
4603;SDS011;2314;48.272;11.562;2024-02-21T03:29:51;4.87;;;1.83;;
4603;SDS011;2314;48.272;11.562;2024-02-21T03:32:20;6.33;;;1.60;;
4603;SDS011;2314;48.272;11.562;2024-02-21T03:34:47;5.83;;;1.60;;
4603;SDS011;2314;48.272;11.562;2024-02-21T03:37:14;5.33;;;1.60;;
4603;SDS011;2314;48.272;11.562;2024-02-21T03:39:41;5.73;;;2.13;;
4603;SDS011;2314;48.272;11.562;2024-02-21T03:42:08;3.80;;;1.50;;
4603;SDS011;2314;48.272;11.562;2024-02-21T03:44:35;4.33;;;2.00;;
4603;SDS011;2314;48.272;11.562;2024-02-21T03:47:02;7.53;;;1.77;;
4603;SDS011;2314;48.272;11.562;2024-02-21T03:49:31;7.60;;;1.40;;
4603;SDS011;2314;48.272;11.562;2024-02-21T03:51:58;6.80;;;2.40;;
4603;SDS011;2314;48.272;11.562;2024-02-21T03:54:25;4.43;;;1.30;;
4603;SDS011;2314;48.272;11.562;2024-02-21T03:56:52;2.30;;;1.50;;
4603;SDS011;2314;48.272;11.562;2024-02-21T03:59:19;9.50;;;1.90;;
4603;SDS011;2314;48.272;11.562;2024-02-21T04:01:47;7.33;;;1.70;;
4603;SDS011;2314;48.272;11.562;2024-02-21T04:04:18;4.27;;;1.50;;
4603;SDS011;2314;48.272;11.562;2024-02-21T04:06:49;8.13;;;1.80;;
4603;SDS011;2314;48.272;11.562;2024-02-21T04:09:17;4.50;;;1.87;;
4603;SDS011;2314;48.272;11.562;2024-02-21T04:11:44;5.00;;;1.40;;
4603;SDS011;2314;48.272;11.562;2024-02-21T04:14:11;4.90;;;1.77;;
4603;SDS011;2314;48.272;11.562;2024-02-21T04:16:38;2.70;;;1.47;;
4603;SDS011;2314;48.272;11.562;2024-02-21T04:19:05;2.87;;;1.40;;
4603;SDS011;2314;48.272;11.562;2024-02-21T04:21:32;3.97;;;1.30;;
4603;SDS011;2314;48.272;11.562;2024-02-21T04:24:01;3.27;;;1.90;;
4603;SDS011;2314;48.272;11.562;2024-02-21T04:26:30;5.60;;;1.80;;
4603;SDS011;2314;48.272;11.562;2024-02-21T04:28:57;3.17;;;1.80;;
4603;SDS011;2314;48.272;11.562;2024-02-21T04:31:24;3.30;;;1.40;;
4603;SDS011;2314;48.272;11.562;2024-02-21T04:33:51;3.00;;;1.20;;
4603;SDS011;2314;48.272;11.562;2024-02-21T04:36:18;5.70;;;1.67;;
4603;SDS011;2314;48.272;11.562;2024-02-21T04:38:45;3.00;;;1.20;;
4603;SDS011;2314;48.272;11.562;2024-02-21T04:41:13;4.03;;;1.47;;
4603;SDS011;2314;48.272;11.562;2024-02-21T04:43:40;4.73;;;1.60;;
4603;SDS011;2314;48.272;11.562;2024-02-21T04:46:07;4.87;;;1.50;;
4603;SDS011;2314;48.272;11.562;2024-02-21T04:48:35;3.70;;;1.30;;
4603;SDS011;2314;48.272;11.562;2024-02-21T04:51:02;5.23;;;1.53;;
4603;SDS011;2314;48.272;11.562;2024-02-21T04:53:29;3.57;;;1.23;;
4603;SDS011;2314;48.272;11.562;2024-02-21T04:55:56;3.23;;;1.97;;
4603;SDS011;2314;48.272;11.562;2024-02-21T04:58:25;6.17;;;1.83;;
4603;SDS011;2314;48.272;11.562;2024-02-21T05:00:51;6.00;;;1.53;;
4603;SDS011;2314;48.272;11.562;2024-02-21T05:03:20;4.47;;;1.40;;
4603;SDS011;2314;48.272;11.562;2024-02-21T05:05:47;2.90;;;1.70;;
4603;SDS011;2314;48.272;11.562;2024-02-21T05:08:14;2.53;;;1.20;;
4603;SDS011;2314;48.272;11.562;2024-02-21T05:10:41;5.70;;;1.57;;
4603;SDS011;2314;48.272;11.562;2024-02-21T05:13:08;4.47;;;1.70;;
4603;SDS011;2314;48.272;11.562;2024-02-21T05:15:36;3.07;;;1.30;;
4603;SDS011;2314;48.272;11.562;2024-02-21T05:18:03;6.17;;;2.50;;
4603;SDS011;2314;48.272;11.562;2024-02-21T05:20:30;8.13;;;1.87;;
4603;SDS011;2314;48.272;11.562;2024-02-21T05:22:57;3.10;;;1.40;;
4603;SDS011;2314;48.272;11.562;2024-02-21T05:25:24;4.13;;;1.70;;
4603;SDS011;2314;48.272;11.562;2024-02-21T05:27:51;3.47;;;1.37;;
4603;SDS011;2314;48.272;11.562;2024-02-21T05:30:19;3.43;;;1.30;;
4603;SDS011;2314;48.272;11.562;2024-02-21T05:32:47;4.83;;;1.20;;
4603;SDS011;2314;48.272;11.562;2024-02-21T05:35:14;4.30;;;1.87;;
4603;SDS011;2314;48.272;11.562;2024-02-21T05:37:41;3.70;;;1.67;;
4603;SDS011;2314;48.272;11.562;2024-02-21T05:40:09;7.37;;;1.40;;
4603;SDS011;2314;48.272;11.562;2024-02-21T05:42:38;2.07;;;1.30;;
4603;SDS011;2314;48.272;11.562;2024-02-21T05:45:05;5.53;;;1.63;;
4603;SDS011;2314;48.272;11.562;2024-02-21T05:47:32;3.60;;;1.27;;
4603;SDS011;2314;48.272;11.562;2024-02-21T05:50:01;4.40;;;1.40;;
4603;SDS011;2314;48.272;11.562;2024-02-21T05:52:28;6.03;;;2.23;;
4603;SDS011;2314;48.272;11.562;2024-02-21T05:54:55;2.37;;;1.50;;
4603;SDS011;2314;48.272;11.562;2024-02-21T05:57:22;2.30;;;0.97;;
4603;SDS011;2314;48.272;11.562;2024-02-21T05:59:49;3.30;;;1.20;;
4603;SDS011;2314;48.272;11.562;2024-02-21T06:02:16;3.73;;;1.10;;
4603;SDS011;2314;48.272;11.562;2024-02-21T06:04:43;4.87;;;1.50;;
4603;SDS011;2314;48.272;11.562;2024-02-21T06:07:12;3.50;;;1.20;;
4603;SDS011;2314;48.272;11.562;2024-02-21T06:09:39;2.60;;;1.20;;
4603;SDS011;2314;48.272;11.562;2024-02-21T06:12:06;4.23;;;1.40;;
4603;SDS011;2314;48.272;11.562;2024-02-21T06:14:34;6.40;;;1.90;;
4603;SDS011;2314;48.272;11.562;2024-02-21T06:17:01;3.37;;;1.53;;
4603;SDS011;2314;48.272;11.562;2024-02-21T06:19:28;2.67;;;1.37;;
4603;SDS011;2314;48.272;11.562;2024-02-21T06:21:55;2.57;;;1.17;;
4603;SDS011;2314;48.272;11.562;2024-02-21T06:24:23;3.10;;;1.00;;
4603;SDS011;2314;48.272;11.562;2024-02-21T06:26:50;2.27;;;0.90;;
4603;SDS011;2314;48.272;11.562;2024-02-21T06:29:17;4.03;;;1.10;;
4603;SDS011;2314;48.272;11.562;2024-02-21T06:31:44;3.40;;;1.17;;
4603;SDS011;2314;48.272;11.562;2024-02-21T06:34:11;4.97;;;1.10;;
4603;SDS011;2314;48.272;11.562;2024-02-21T06:36:38;2.43;;;1.17;;
4603;SDS011;2314;48.272;11.562;2024-02-21T06:39:05;2.50;;;0.90;;
4603;SDS011;2314;48.272;11.562;2024-02-21T06:41:34;3.73;;;1.40;;
4603;SDS011;2314;48.272;11.562;2024-02-21T06:44:01;2.00;;;0.93;;
4603;SDS011;2314;48.272;11.562;2024-02-21T06:46:29;3.83;;;1.23;;
4603;SDS011;2314;48.272;11.562;2024-02-21T06:48:58;2.70;;;1.13;;
4603;SDS011;2314;48.272;11.562;2024-02-21T06:51:28;9.27;;;1.50;;
4603;SDS011;2314;48.272;11.562;2024-02-21T06:53:55;4.77;;;1.53;;
4603;SDS011;2314;48.272;11.562;2024-02-21T06:56:23;13.00;;;1.43;;
4603;SDS011;2314;48.272;11.562;2024-02-21T06:58:55;4.10;;;1.00;;
4603;SDS011;2314;48.272;11.562;2024-02-21T07:01:22;3.40;;;1.00;;
4603;SDS011;2314;48.272;11.562;2024-02-21T07:03:49;2.00;;;0.93;;
4603;SDS011;2314;48.272;11.562;2024-02-21T07:06:16;3.50;;;0.90;;
4603;SDS011;2314;48.272;11.562;2024-02-21T07:08:43;3.13;;;1.23;;
4603;SDS011;2314;48.272;11.562;2024-02-21T07:11:10;3.33;;;0.97;;
4603;SDS011;2314;48.272;11.562;2024-02-21T07:13:37;3.83;;;1.00;;
4603;SDS011;2314;48.272;11.562;2024-02-21T07:16:06;4.37;;;1.07;;
4603;SDS011;2314;48.272;11.562;2024-02-21T07:18:33;10.30;;;1.20;;
4603;SDS011;2314;48.272;11.562;2024-02-21T07:21:00;6.83;;;1.77;;
4603;SDS011;2314;48.272;11.562;2024-02-21T07:23:27;2.10;;;1.00;;
4603;SDS011;2314;48.272;11.562;2024-02-21T07:25:54;2.07;;;0.90;;
4603;SDS011;2314;48.272;11.562;2024-02-21T07:28:21;2.37;;;1.00;;
4603;SDS011;2314;48.272;11.562;2024-02-21T07:30:48;2.80;;;1.43;;
4603;SDS011;2314;48.272;11.562;2024-02-21T07:33:16;2.43;;;1.10;;
4603;SDS011;2314;48.272;11.562;2024-02-21T07:35:43;2.70;;;1.00;;
4603;SDS011;2314;48.272;11.562;2024-02-21T07:38:10;2.67;;;0.90;;
4603;SDS011;2314;48.272;11.562;2024-02-21T07:40:37;2.00;;;0.80;;
4603;SDS011;2314;48.272;11.562;2024-02-21T07:43:04;3.20;;;1.10;;
4603;SDS011;2314;48.272;11.562;2024-02-21T07:45:31;5.90;;;1.77;;
4603;SDS011;2314;48.272;11.562;2024-02-21T07:47:58;7.07;;;1.83;;
4603;SDS011;2314;48.272;11.562;2024-02-21T07:50:27;3.20;;;1.73;;
4603;SDS011;2314;48.272;11.562;2024-02-21T07:52:54;3.10;;;1.00;;
4603;SDS011;2314;48.272;11.562;2024-02-21T07:55:21;3.83;;;1.00;;
4603;SDS011;2314;48.272;11.562;2024-02-21T07:57:48;2.37;;;1.00;;
4603;SDS011;2314;48.272;11.562;2024-02-21T08:00:16;2.00;;;0.87;;
4603;SDS011;2314;48.272;11.562;2024-02-21T08:02:47;2.33;;;0.90;;
4603;SDS011;2314;48.272;11.562;2024-02-21T08:05:15;2.33;;;0.83;;
4603;SDS011;2314;48.272;11.562;2024-02-21T08:07:43;2.63;;;0.90;;
4603;SDS011;2314;48.272;11.562;2024-02-21T08:10:10;3.03;;;1.40;;
4603;SDS011;2314;48.272;11.562;2024-02-21T08:12:38;3.83;;;1.17;;
4603;SDS011;2314;48.272;11.562;2024-02-21T08:15:05;3.00;;;1.30;;
4603;SDS011;2314;48.272;11.562;2024-02-21T08:17:35;5.53;;;1.60;;
4603;SDS011;2314;48.272;11.562;2024-02-21T08:20:02;9.53;;;1.73;;
4603;SDS011;2314;48.272;11.562;2024-02-21T08:22:30;3.30;;;0.90;;
4603;SDS011;2314;48.272;11.562;2024-02-21T08:24:59;7.83;;;1.20;;
4603;SDS011;2314;48.272;11.562;2024-02-21T08:27:26;2.03;;;0.90;;
4603;SDS011;2314;48.272;11.562;2024-02-21T08:29:53;3.50;;;1.07;;
4603;SDS011;2314;48.272;11.562;2024-02-21T08:32:20;2.27;;;0.80;;
4603;SDS011;2314;48.272;11.562;2024-02-21T08:34:46;2.00;;;0.90;;
4603;SDS011;2314;48.272;11.562;2024-02-21T08:37:13;2.17;;;0.90;;
4603;SDS011;2314;48.272;11.562;2024-02-21T08:39:40;4.07;;;0.80;;
4603;SDS011;2314;48.272;11.562;2024-02-21T08:42:09;12.67;;;1.00;;
4603;SDS011;2314;48.272;11.562;2024-02-21T08:44:36;1.90;;;1.07;;
4603;SDS011;2314;48.272;11.562;2024-02-21T08:47:06;3.10;;;0.87;;
4603;SDS011;2314;48.272;11.562;2024-02-21T08:49:35;1.83;;;0.77;;
4603;SDS011;2314;48.272;11.562;2024-02-21T08:52:02;2.07;;;0.80;;
4603;SDS011;2314;48.272;11.562;2024-02-21T08:54:30;4.03;;;0.80;;
4603;SDS011;2314;48.272;11.562;2024-02-21T08:56:57;2.43;;;0.93;;
4603;SDS011;2314;48.272;11.562;2024-02-21T08:59:26;1.70;;;0.80;;
4603;SDS011;2314;48.272;11.562;2024-02-21T09:01:53;2.60;;;0.80;;
4603;SDS011;2314;48.272;11.562;2024-02-21T09:04:20;3.13;;;0.90;;
4603;SDS011;2314;48.272;11.562;2024-02-21T09:06:47;3.30;;;1.10;;
4603;SDS011;2314;48.272;11.562;2024-02-21T09:09:14;2.10;;;1.00;;
4603;SDS011;2314;48.272;11.562;2024-02-21T09:11:42;3.73;;;1.53;;
4603;SDS011;2314;48.272;11.562;2024-02-21T09:14:09;2.80;;;1.03;;
4603;SDS011;2314;48.272;11.562;2024-02-21T09:16:37;2.13;;;0.90;;
4603;SDS011;2314;48.272;11.562;2024-02-21T09:19:04;2.90;;;0.70;;
4603;SDS011;2314;48.272;11.562;2024-02-21T09:21:32;2.17;;;0.80;;
4603;SDS011;2314;48.272;11.562;2024-02-21T09:23:59;1.80;;;0.77;;
4603;SDS011;2314;48.272;11.562;2024-02-21T09:26:26;3.20;;;0.73;;
4603;SDS011;2314;48.272;11.562;2024-02-21T09:28:53;1.93;;;0.73;;
4603;SDS011;2314;48.272;11.562;2024-02-21T09:31:20;2.07;;;0.93;;
4603;SDS011;2314;48.272;11.562;2024-02-21T09:33:48;3.13;;;1.00;;
4603;SDS011;2314;48.272;11.562;2024-02-21T09:36:15;4.63;;;1.10;;
4603;SDS011;2314;48.272;11.562;2024-02-21T09:38:42;2.20;;;0.80;;
4603;SDS011;2314;48.272;11.562;2024-02-21T09:41:11;2.70;;;0.90;;
4603;SDS011;2314;48.272;11.562;2024-02-21T09:43:43;2.67;;;0.90;;
4603;SDS011;2314;48.272;11.562;2024-02-21T09:46:13;3.47;;;1.00;;
4603;SDS011;2314;48.272;11.562;2024-02-21T09:48:48;2.00;;;0.80;;
4603;SDS011;2314;48.272;11.562;2024-02-21T09:51:33;1.87;;;0.70;;
4603;SDS011;2314;48.272;11.562;2024-02-21T09:54:02;2.07;;;1.00;;
4603;SDS011;2314;48.272;11.562;2024-02-21T09:56:30;2.07;;;0.80;;
4603;SDS011;2314;48.272;11.562;2024-02-21T09:58:57;3.30;;;1.10;;
4603;SDS011;2314;48.272;11.562;2024-02-21T10:01:25;1.90;;;0.80;;
4603;SDS011;2314;48.272;11.562;2024-02-21T10:03:52;1.70;;;0.70;;
4603;SDS011;2314;48.272;11.562;2024-02-21T10:06:20;2.07;;;0.80;;
4603;SDS011;2314;48.272;11.562;2024-02-21T10:08:51;2.00;;;0.80;;
4603;SDS011;2314;48.272;11.562;2024-02-21T10:11:22;2.60;;;0.90;;
4603;SDS011;2314;48.272;11.562;2024-02-21T10:13:50;3.00;;;0.80;;
4603;SDS011;2314;48.272;11.562;2024-02-21T10:16:17;3.00;;;0.80;;
4603;SDS011;2314;48.272;11.562;2024-02-21T10:18:44;2.63;;;0.90;;
4603;SDS011;2314;48.272;11.562;2024-02-21T10:21:11;2.90;;;0.90;;
4603;SDS011;2314;48.272;11.562;2024-02-21T10:23:43;2.87;;;0.70;;
4603;SDS011;2314;48.272;11.562;2024-02-21T10:26:11;1.83;;;0.77;;
4603;SDS011;2314;48.272;11.562;2024-02-21T10:28:38;2.27;;;1.10;;
4603;SDS011;2314;48.272;11.562;2024-02-21T10:31:07;4.90;;;0.80;;
4603;SDS011;2314;48.272;11.562;2024-02-21T10:33:35;2.10;;;0.80;;
4603;SDS011;2314;48.272;11.562;2024-02-21T10:36:08;1.73;;;0.70;;
4603;SDS011;2314;48.272;11.562;2024-02-21T10:38:37;1.87;;;0.70;;
4603;SDS011;2314;48.272;11.562;2024-02-21T10:41:06;2.50;;;0.90;;
4603;SDS011;2314;48.272;11.562;2024-02-21T10:43:38;3.17;;;0.80;;
4603;SDS011;2314;48.272;11.562;2024-02-21T10:46:06;2.73;;;0.80;;
4603;SDS011;2314;48.272;11.562;2024-02-21T10:48:38;1.70;;;0.70;;
4603;SDS011;2314;48.272;11.562;2024-02-21T10:51:13;2.50;;;0.70;;
4603;SDS011;2314;48.272;11.562;2024-02-21T10:53:47;2.90;;;0.80;;
4603;SDS011;2314;48.272;11.562;2024-02-21T10:56:26;2.57;;;0.80;;
4603;SDS011;2314;48.272;11.562;2024-02-21T10:58:56;2.60;;;0.93;;
4603;SDS011;2314;48.272;11.562;2024-02-21T11:01:24;3.93;;;1.47;;
4603;SDS011;2314;48.272;11.562;2024-02-21T11:03:54;3.73;;;1.23;;
4603;SDS011;2314;48.272;11.562;2024-02-21T11:06:23;1.90;;;0.90;;
4603;SDS011;2314;48.272;11.562;2024-02-21T11:09:03;2.83;;;1.00;;
4603;SDS011;2314;48.272;11.562;2024-02-21T11:11:35;3.50;;;1.40;;
4603;SDS011;2314;48.272;11.562;2024-02-21T11:14:05;5.17;;;1.63;;
4603;SDS011;2314;48.272;11.562;2024-02-21T11:16:36;3.80;;;1.60;;
4603;SDS011;2314;48.272;11.562;2024-02-21T11:19:07;3.10;;;1.17;;
4603;SDS011;2314;48.272;11.562;2024-02-21T11:21:36;3.30;;;1.10;;
4603;SDS011;2314;48.272;11.562;2024-02-21T11:24:04;4.73;;;1.20;;
4603;SDS011;2314;48.272;11.562;2024-02-21T11:26:32;3.70;;;0.83;;
4603;SDS011;2314;48.272;11.562;2024-02-21T11:29:00;5.20;;;1.00;;
4603;SDS011;2314;48.272;11.562;2024-02-21T11:31:37;3.30;;;1.00;;
4603;SDS011;2314;48.272;11.562;2024-02-21T11:34:08;2.60;;;0.90;;
4603;SDS011;2314;48.272;11.562;2024-02-21T11:36:36;2.00;;;0.70;;
4603;SDS011;2314;48.272;11.562;2024-02-21T11:39:13;5.23;;;1.00;;
4603;SDS011;2314;48.272;11.562;2024-02-21T11:41:44;7.73;;;0.80;;
4603;SDS011;2314;48.272;11.562;2024-02-21T11:44:12;3.40;;;0.70;;
4603;SDS011;2314;48.272;11.562;2024-02-21T11:46:39;4.07;;;0.93;;
4603;SDS011;2314;48.272;11.562;2024-02-21T11:49:07;2.27;;;0.70;;
4603;SDS011;2314;48.272;11.562;2024-02-21T11:51:34;5.20;;;0.70;;
4603;SDS011;2314;48.272;11.562;2024-02-21T11:54:01;2.73;;;0.80;;
4603;SDS011;2314;48.272;11.562;2024-02-21T11:56:29;3.70;;;0.80;;
4603;SDS011;2314;48.272;11.562;2024-02-21T11:58:58;2.00;;;0.70;;
4603;SDS011;2314;48.272;11.562;2024-02-21T12:01:27;1.40;;;0.60;;
4603;SDS011;2314;48.272;11.562;2024-02-21T12:03:54;1.97;;;0.77;;
4603;SDS011;2314;48.272;11.562;2024-02-21T12:06:21;1.70;;;0.60;;
4603;SDS011;2314;48.272;11.562;2024-02-21T12:08:48;1.80;;;0.60;;
4603;SDS011;2314;48.272;11.562;2024-02-21T12:11:16;1.60;;;0.67;;
4603;SDS011;2314;48.272;11.562;2024-02-21T12:13:47;1.63;;;0.60;;
4603;SDS011;2314;48.272;11.562;2024-02-21T12:16:25;1.80;;;0.73;;
4603;SDS011;2314;48.272;11.562;2024-02-21T12:18:55;2.73;;;0.70;;
4603;SDS011;2314;48.272;11.562;2024-02-21T12:21:25;1.90;;;0.63;;
4603;SDS011;2314;48.272;11.562;2024-02-21T12:23:53;3.00;;;0.70;;
4603;SDS011;2314;48.272;11.562;2024-02-21T12:26:21;1.60;;;0.60;;
4603;SDS011;2314;48.272;11.562;2024-02-21T12:28:48;1.80;;;0.60;;
4603;SDS011;2314;48.272;11.562;2024-02-21T12:31:15;1.50;;;0.60;;
4603;SDS011;2314;48.272;11.562;2024-02-21T12:33:43;1.57;;;0.67;;
4603;SDS011;2314;48.272;11.562;2024-02-21T12:36:10;1.50;;;0.70;;
4603;SDS011;2314;48.272;11.562;2024-02-21T12:38:37;2.27;;;0.60;;
4603;SDS011;2314;48.272;11.562;2024-02-21T12:41:04;1.80;;;0.80;;
4603;SDS011;2314;48.272;11.562;2024-02-21T12:43:32;1.77;;;0.70;;
4603;SDS011;2314;48.272;11.562;2024-02-21T12:45:59;1.67;;;0.70;;
4603;SDS011;2314;48.272;11.562;2024-02-21T12:48:26;1.63;;;0.70;;
4603;SDS011;2314;48.272;11.562;2024-02-21T12:50:55;1.40;;;0.60;;
4603;SDS011;2314;48.272;11.562;2024-02-21T12:53:21;1.30;;;0.60;;
4603;SDS011;2314;48.272;11.562;2024-02-21T12:55:49;1.60;;;0.60;;
4603;SDS011;2314;48.272;11.562;2024-02-21T12:58:16;6.53;;;0.60;;
4603;SDS011;2314;48.272;11.562;2024-02-21T13:00:43;3.00;;;0.73;;
4603;SDS011;2314;48.272;11.562;2024-02-21T13:03:10;1.70;;;0.70;;
4603;SDS011;2314;48.272;11.562;2024-02-21T13:05:37;2.43;;;0.70;;
4603;SDS011;2314;48.272;11.562;2024-02-21T13:08:06;2.57;;;1.10;;
4603;SDS011;2314;48.272;11.562;2024-02-21T13:10:36;1.63;;;0.60;;
4603;SDS011;2314;48.272;11.562;2024-02-21T13:13:03;1.80;;;0.70;;
4603;SDS011;2314;48.272;11.562;2024-02-21T13:15:30;1.80;;;0.73;;
4603;SDS011;2314;48.272;11.562;2024-02-21T13:17:57;1.80;;;0.63;;
4603;SDS011;2314;48.272;11.562;2024-02-21T13:20:24;5.90;;;0.90;;
4603;SDS011;2314;48.272;11.562;2024-02-21T13:22:53;3.40;;;0.70;;
4603;SDS011;2314;48.272;11.562;2024-02-21T13:25:21;1.50;;;0.60;;
4603;SDS011;2314;48.272;11.562;2024-02-21T13:27:48;1.40;;;0.60;;
4603;SDS011;2314;48.272;11.562;2024-02-21T13:30:16;1.83;;;0.60;;
4603;SDS011;2314;48.272;11.562;2024-02-21T13:32:43;1.50;;;0.60;;
4603;SDS011;2314;48.272;11.562;2024-02-21T13:35:12;1.70;;;0.63;;
4603;SDS011;2314;48.272;11.562;2024-02-21T13:37:39;1.30;;;0.50;;
4603;SDS011;2314;48.272;11.562;2024-02-21T13:40:07;1.50;;;0.50;;
4603;SDS011;2314;48.272;11.562;2024-02-21T13:42:36;4.33;;;1.77;;
4603;SDS011;2314;48.272;11.562;2024-02-21T13:45:04;1.67;;;0.70;;
4603;SDS011;2314;48.272;11.562;2024-02-21T13:47:32;3.50;;;0.70;;
4603;SDS011;2314;48.272;11.562;2024-02-21T13:50:01;1.60;;;0.70;;
4603;SDS011;2314;48.272;11.562;2024-02-21T13:52:29;1.40;;;0.50;;
4603;SDS011;2314;48.272;11.562;2024-02-21T13:54:57;1.70;;;0.70;;
4603;SDS011;2314;48.272;11.562;2024-02-21T13:57:24;2.00;;;0.77;;
4603;SDS011;2314;48.272;11.562;2024-02-21T13:59:52;2.23;;;0.80;;
4603;SDS011;2314;48.272;11.562;2024-02-21T14:02:19;1.73;;;0.73;;
4603;SDS011;2314;48.272;11.562;2024-02-21T14:04:46;1.40;;;0.60;;
4603;SDS011;2314;48.272;11.562;2024-02-21T14:07:13;2.13;;;0.70;;
4603;SDS011;2314;48.272;11.562;2024-02-21T14:09:41;1.50;;;0.60;;
4603;SDS011;2314;48.272;11.562;2024-02-21T14:12:08;1.40;;;0.70;;
4603;SDS011;2314;48.272;11.562;2024-02-21T14:14:35;2.17;;;0.80;;
4603;SDS011;2314;48.272;11.562;2024-02-21T14:17:03;1.80;;;0.60;;
4603;SDS011;2314;48.272;11.562;2024-02-21T14:19:30;2.17;;;0.83;;
4603;SDS011;2314;48.272;11.562;2024-02-21T14:21:58;2.50;;;0.90;;
4603;SDS011;2314;48.272;11.562;2024-02-21T14:24:25;2.07;;;0.70;;
4603;SDS011;2314;48.272;11.562;2024-02-21T14:26:52;1.83;;;0.80;;
4603;SDS011;2314;48.272;11.562;2024-02-21T14:29:20;1.50;;;0.80;;
4603;SDS011;2314;48.272;11.562;2024-02-21T14:31:47;1.80;;;0.70;;
4603;SDS011;2314;48.272;11.562;2024-02-21T14:34:15;1.47;;;0.60;;
4603;SDS011;2314;48.272;11.562;2024-02-21T14:36:42;1.50;;;0.60;;
4603;SDS011;2314;48.272;11.562;2024-02-21T14:39:09;2.53;;;0.60;;
4603;SDS011;2314;48.272;11.562;2024-02-21T14:41:36;1.97;;;0.70;;
4603;SDS011;2314;48.272;11.562;2024-02-21T14:44:04;1.90;;;1.00;;
4603;SDS011;2314;48.272;11.562;2024-02-21T14:46:34;1.87;;;0.70;;
4603;SDS011;2314;48.272;11.562;2024-02-21T14:49:02;1.70;;;0.70;;
4603;SDS011;2314;48.272;11.562;2024-02-21T14:51:31;1.30;;;0.53;;
4603;SDS011;2314;48.272;11.562;2024-02-21T14:53:59;1.53;;;0.60;;
4603;SDS011;2314;48.272;11.562;2024-02-21T14:56:26;1.60;;;0.60;;
4603;SDS011;2314;48.272;11.562;2024-02-21T14:58:52;1.73;;;0.73;;
4603;SDS011;2314;48.272;11.562;2024-02-21T15:01:19;1.50;;;0.70;;
4603;SDS011;2314;48.272;11.562;2024-02-21T15:03:46;1.50;;;0.60;;